Time;durP1;ratioP1;P1;durP2;ratioP2;P2;SDS_P1;SDS_P2;PMS_P1;PMS_P2;Temp;Humidity;BMP_temperature;BMP_pressure;BME280_temperature;BME280_humidity;BME280_pressure;Samples;Min_cycle;Max_cycle;Signal;HPM_P1;HPM_P2
2022/01/27 00:06:30;;;;;;;46.42;22.30;;;;;;;1.53;61.09;101251.06;10485915;28;20984;-66
2022/01/27 00:11:32;;;;;;;46.78;23.05;;;;;;;1.62;60.88;101240.75;10497446;28;20058;-67
2022/01/27 00:16:40;;;;;;;44.05;21.63;;;;;;;1.60;60.92;101248.50;10486606;28;20071;-66
2022/01/27 00:21:42;;;;;;;48.30;22.65;;;;;;;1.61;60.86;101237.31;10477434;28;20137;-66
2022/01/27 00:26:43;;;;;;;52.55;23.88;;;;;;;1.71;60.86;101227.81;10487853;28;20743;-67
2022/01/27 00:31:45;;;;;;;54.28;23.83;;;;;;;1.64;60.85;101223.56;10484876;28;20132;-66
2022/01/27 00:36:47;;;;;;;50.63;22.55;;;;;;;1.65;61.17;101208.06;10492788;28;20163;-66
2022/01/27 00:41:49;;;;;;;59.20;24.50;;;;;;;1.56;61.22;101213.28;10494315;28;20139;-66
2022/01/27 00:46:51;;;;;;;62.50;26.73;;;;;;;1.43;61.40;101215.88;10497437;28;20488;-66
2022/01/27 00:51:54;;;;;;;59.72;25.77;;;;;;;1.43;61.57;101239.06;10493459;28;20404;-66
2022/01/27 00:57:05;;;;;;;50.38;21.80;;;;;;;1.37;61.47;101247.66;10480645;28;20048;-66
2022/01/27 01:07:10;;;;;;;53.85;23.63;;;;;;;1.22;61.77;101239.94;10470503;28;20163;-66
2022/01/27 01:33:03;;;;;;;47.67;20.70;;;;;;;1.47;61.37;101202.97;10467744;28;20060;-68
2022/01/27 01:38:06;;;;;;;51.55;21.83;;;;;;;1.55;61.48;101200.34;10472180;28;20924;-67
2022/01/27 01:43:08;;;;;;;60.58;24.90;;;;;;;1.53;61.28;101182.31;10465607;28;20097;-67
2022/01/27 01:48:10;;;;;;;50.60;21.95;;;;;;;1.28;61.98;101171.22;10481296;28;20052;-67
2022/01/27 01:53:12;;;;;;;54.55;21.90;;;;;;;1.24;62.02;101159.22;10466644;28;20467;-67
2022/01/27 01:58:14;;;;;;;57.53;22.42;;;;;;;1.23;61.99;101157.50;10476328;28;20059;-67
2022/01/27 02:03:16;;;;;;;52.72;22.75;;;;;;;1.34;61.59;101139.41;10479513;28;20063;-67
2022/01/27 02:18:46;;;;;;;45.17;20.15;;;;;;;0.91;62.46;101148.13;10477119;28;20048;-67
2022/01/27 02:23:48;;;;;;;48.80;21.58;;;;;;;1.07;62.17;101148.09;10465185;28;20047;-67
2022/01/27 02:28:50;;;;;;;52.90;21.13;;;;;;;1.11;62.10;101136.94;10465214;28;20048;-67
2022/01/27 02:34:00;;;;;;;51.28;22.13;;;;;;;1.13;62.10;101150.66;10466164;28;20131;-67
2022/01/27 02:39:04;;;;;;;55.20;23.87;;;;;;;1.14;62.18;101129.19;10464847;28;20148;-67
2022/01/27 02:44:05;;;;;;;47.28;20.63;;;;;;;1.07;62.19;101124.91;10465294;28;20053;-67
2022/01/27 02:49:08;;;;;;;53.72;22.02;;;;;;;1.06;62.41;101119.75;10463175;28;20105;-67
2022/01/27 02:54:09;;;;;;;48.22;21.80;;;;;;;1.05;62.34;101123.19;10465298;28;20056;-67
2022/01/27 02:59:13;;;;;;;44.28;19.58;;;;;;;1.23;62.28;101125.72;10476261;28;20171;-66
2022/01/27 03:04:16;;;;;;;46.45;20.08;;;;;;;1.25;61.97;101130.03;10471146;28;20072;-66
2022/01/27 03:09:18;;;;;;;42.95;18.48;;;;;;;1.15;62.02;101112.88;10473288;28;20051;-67
2022/01/27 03:14:23;;;;;;;39.88;17.95;;;;;;;1.17;61.91;101111.16;10471657;28;20412;-67
2022/01/27 03:19:26;;;;;;;41.58;18.85;;;;;;;1.27;61.78;101106.81;10472715;28;20060;-66
2022/01/27 03:24:28;;;;;;;44.45;19.15;;;;;;;1.36;61.33;101102.47;10471215;28;20143;-66
2022/01/27 03:29:29;;;;;;;44.95;19.58;;;;;;;1.34;61.32;101101.63;10471884;28;20053;-67
2022/01/27 03:34:31;;;;;;;41.28;18.27;;;;;;;1.40;61.80;101097.31;10472557;28;20553;-67
2022/01/27 03:39:36;;;;;;;44.95;19.52;;;;;;;1.43;61.30;101098.16;10471950;28;20052;-67
2022/01/27 03:44:38;;;;;;;48.58;22.60;;;;;;;1.54;61.40;101095.53;10470843;28;20056;-67
2022/01/27 03:49:40;;;;;;;45.33;19.70;;;;;;;1.49;61.16;101099.84;10470368;28;20076;-67
2022/01/27 03:54:42;;;;;;;49.05;21.00;;;;;;;1.46;61.55;101092.13;10471576;28;20522;-67
2022/01/27 03:59:44;;;;;;;48.15;21.88;;;;;;;1.34;61.59;101087.88;10474315;28;20435;-67
2022/01/27 04:04:45;;;;;;;49.88;21.88;;;;;;;1.38;61.36;101096.47;10476055;28;20168;-67
2022/01/27 04:09:47;;;;;;;45.90;20.67;;;;;;;1.42;61.47;101075.81;10477981;28;20134;-67
2022/01/27 04:14:49;;;;;;;44.30;18.95;;;;;;;1.18;61.73;101087.09;10478275;28;20056;-67
2022/01/27 04:19:50;;;;;;;44.63;19.75;;;;;;;1.36;61.28;101081.00;10471757;28;20564;-67
2022/01/27 04:24:52;;;;;;;42.15;18.98;;;;;;;1.30;61.27;101078.44;10469251;28;20056;-67
2022/01/27 04:29:54;;;;;;;43.65;20.00;;;;;;;1.16;61.66;101087.94;10467101;28;20048;-66
2022/01/27 04:35:01;;;;;;;45.47;19.73;;;;;;;1.29;61.44;101087.06;10477184;28;20044;-67
2022/01/27 04:40:10;;;;;;;44.13;19.13;;;;;;;1.27;61.31;101094.78;10509844;28;20756;-67
2022/01/27 04:45:14;;;;;;;41.80;19.23;;;;;;;1.31;61.42;101078.47;10471231;28;20052;-67
2022/01/27 04:50:16;;;;;;;43.35;19.20;;;;;;;1.35;61.32;101075.00;10470218;28;20076;-67
2022/01/27 04:55:20;;;;;;;39.40;17.98;;;;;;;1.31;61.26;101067.28;10470573;28;20135;-67
2022/01/27 05:00:22;;;;;;;51.63;25.58;;;;;;;1.36;61.30;101071.53;10468910;28;20062;-67
2022/01/27 05:05:24;;;;;;;92.82;47.30;;;;;;;1.36;61.26;101068.97;10469925;28;20044;-67
2022/01/27 05:10:31;;;;;;;41.15;18.67;;;;;;;1.33;61.33;101061.28;10469827;28;20056;-67
2022/01/27 05:15:40;;;;;;;42.20;18.35;;;;;;;1.45;61.30;101059.47;10469353;28;20133;-67
2022/01/27 05:20:43;;;;;;;40.03;17.00;;;;;;;1.55;61.05;101076.63;10467811;28;20498;-67
2022/01/27 05:25:45;;;;;;;38.20;17.30;;;;;;;1.55;61.10;101074.91;10469415;28;20048;-67
2022/01/27 05:30:47;;;;;;;39.42;17.83;;;;;;;1.52;60.79;101071.50;10468493;28;20152;-67
2022/01/27 05:35:49;;;;;;;37.28;17.17;;;;;;;1.51;60.85;101060.31;10467637;28;20048;-67
2022/01/27 05:40:51;;;;;;;38.85;17.35;;;;;;;1.57;60.81;101046.53;10473363;28;20063;-67
2022/01/27 05:45:53;;;;;;;36.95;17.38;;;;;;;1.67;60.71;101033.56;10469214;28;20139;-67
2022/01/27 05:50:55;;;;;;;34.63;16.63;;;;;;;1.71;60.64;101018.94;10466498;28;20866;-68
2022/01/27 05:55:57;;;;;;;39.20;16.50;;;;;;;1.75;60.55;101002.56;10467831;28;20155;-67
2022/01/27 06:00:59;;;;;;;33.50;16.40;;;;;;;1.77;60.73;100996.53;10473910;28;20603;-67
2022/01/27 06:06:01;;;;;;;37.08;16.48;;;;;;;1.67;60.64;100989.75;10467325;28;20057;-67
2022/01/27 06:11:03;;;;;;;34.88;15.63;;;;;;;1.60;60.98;100989.81;10466426;28;20673;-67
2022/01/27 06:16:11;;;;;;;32.58;15.93;;;;;;;1.48;61.12;100977.00;10467108;28;20142;-67
2022/01/27 06:21:16;;;;;;;33.22;15.25;;;;;;;1.54;61.12;100971.78;10467579;28;20095;-67
2022/01/27 06:26:18;;;;;;;32.97;15.25;;;;;;;1.55;61.26;100966.63;10465687;28;20078;-67
2022/01/27 06:31:20;;;;;;;32.08;15.30;;;;;;;1.56;61.48;100959.75;10466727;28;20060;-67
2022/01/27 06:36:22;;;;;;;32.83;14.85;;;;;;;1.52;61.65;100942.59;10466625;28;20779;-67
2022/01/27 06:41:28;;;;;;;35.05;15.75;;;;;;;1.50;61.69;100934.03;10465601;28;20054;-67
2022/01/27 06:46:32;;;;;;;32.13;16.25;;;;;;;1.41;62.24;100934.06;10465837;28;20040;-67
2022/01/27 06:51:34;;;;;;;33.78;15.60;;;;;;;1.51;62.04;100922.81;10466730;28;20053;-68
2022/01/27 06:56:36;;;;;;;35.90;15.65;;;;;;;1.62;62.06;100923.63;10464336;28;20048;-67
2022/01/27 07:01:39;;;;;;;35.70;16.05;;;;;;;1.55;62.37;100903.88;10471876;28;20060;-67
2022/01/27 07:06:41;;;;;;;36.00;15.82;;;;;;;1.57;62.66;100912.47;10466742;28;20128;-67
2022/01/27 07:11:43;;;;;;;40.00;17.73;;;;;;;1.65;62.53;100918.41;10483143;28;20129;-67
2022/01/27 07:16:45;;;;;;;35.22;16.40;;;;;;;1.63;62.77;100917.56;10478553;28;20411;-67
2022/01/27 07:21:47;;;;;;;36.33;16.58;;;;;;;1.62;62.83;100903.00;10464525;28;20132;-67
2022/01/27 07:26:49;;;;;;;33.20;15.77;;;;;;;1.67;62.97;100904.66;10465220;28;20057;-67
2022/01/27 07:31:51;;;;;;;31.73;16.73;;;;;;;1.74;62.98;100908.91;10466307;28;20053;-67
2022/01/27 07:36:57;;;;;;;33.17;16.42;;;;;;;1.73;63.31;100894.28;10467204;28;20071;-67
2022/01/27 07:42:00;;;;;;;36.60;16.65;;;;;;;1.84;62.97;100889.03;10470777;28;20052;-68
2022/01/27 07:47:02;;;;;;;36.72;17.63;;;;;;;1.87;62.86;100889.03;10471962;28;20465;-67
2022/01/27 07:52:04;;;;;;;36.95;17.38;;;;;;;1.95;63.13;100884.66;10489431;28;20151;-67
2022/01/27 07:57:06;;;;;;;40.65;17.70;;;;;;;1.96;63.15;100883.75;10472017;28;20140;-67
2022/01/27 08:02:08;;;;;;;37.45;17.40;;;;;;;2.02;62.92;100875.97;10481839;28;20511;-67
2022/01/27 08:07:10;;;;;;;37.55;17.95;;;;;;;2.15;63.00;100873.22;10473417;28;20056;-67
2022/01/27 08:12:12;;;;;;;37.33;17.67;;;;;;;2.13;63.05;100874.97;10468942;28;20240;-68
2022/01/27 08:17:16;;;;;;;35.92;17.88;;;;;;;2.32;62.78;100862.72;10468025;28;20155;-67
2022/01/27 08:22:18;;;;;;;35.92;18.25;;;;;;;2.29;63.03;100862.78;10470378;28;20686;-68
2022/01/27 08:27:25;;;;;;;37.45;17.55;;;;;;;2.43;62.95;100871.22;10475358;28;20063;-68
2022/01/27 08:33:19;;;;;;;38.97;17.67;;;;;;;2.53;62.82;100871.94;10469337;28;20547;-68
2022/01/27 08:37:53;;;;;;;34.60;18.15;;;;;;;2.67;62.57;100859.72;10456967;28;20341;-67
2022/01/27 08:42:56;;;;;;;35.45;16.83;;;;;;;2.84;62.30;100863.81;10475795;28;20473;-67
2022/01/27 08:47:59;;;;;;;38.10;17.75;;;;;;;2.77;62.50;100861.31;10472181;28;20101;-67
2022/01/27 08:53:01;;;;;;;32.55;17.23;;;;;;;2.82;62.44;100847.47;10472725;28;20163;-68
2022/01/27 08:58:03;;;;;;;35.92;17.38;;;;;;;2.78;62.87;100848.38;10471370;28;20052;-67
2022/01/27 09:03:04;;;;;;;32.72;17.27;;;;;;;2.89;62.55;100835.28;10471986;28;20056;-67
2022/01/27 09:08:06;;;;;;;38.03;17.95;;;;;;;2.95;62.53;100830.91;10471203;28;20041;-68
2022/01/27 09:13:08;;;;;;;33.25;17.20;;;;;;;3.14;62.19;100828.91;10471931;28;20052;-67
2022/01/27 09:18:10;;;;;;;33.00;17.52;;;;;;;3.20;62.26;100822.78;10471127;28;20576;-67
2022/01/27 09:23:15;;;;;;;27.63;15.73;;;;;;;3.23;62.12;100825.34;10471152;28;20067;-67
2022/01/27 09:28:17;;;;;;;32.33;16.55;;;;;;;3.31;62.16;100814.00;10474388;28;20407;-67
2022/01/27 09:33:19;;;;;;;29.95;16.38;;;;;;;3.39;61.99;100795.75;10481340;28;20044;-67
2022/01/27 09:38:20;;;;;;;35.63;17.20;;;;;;;3.58;61.78;100792.81;10477385;28;20131;-67
2022/01/27 09:43:22;;;;;;;31.10;16.48;;;;;;;3.70;61.54;100802.13;10468216;28;20080;-67
2022/01/27 09:48:26;;;;;;;29.67;15.98;;;;;;;3.77;61.57;100811.47;10468362;28;20080;-68
2022/01/27 09:53:30;;;;;;;33.45;15.13;;;;;;;3.74;61.49;100817.53;10468347;28;20382;-67
2022/01/27 09:58:32;;;;;;;28.63;15.98;;;;;;;3.73;61.48;100808.09;10467971;28;20058;-67
2022/01/27 10:03:34;;;;;;;32.08;15.77;;;;;;;3.78;61.33;100798.50;10469924;28;20137;-67
2022/01/27 10:08:40;;;;;;;27.52;14.80;;;;;;;3.77;61.46;100796.78;10474612;28;20135;-67
2022/01/27 10:13:44;;;;;;;28.30;14.48;;;;;;;3.80;61.44;100781.19;10475355;28;20155;-67
2022/01/27 10:18:46;;;;;;;27.45;15.52;;;;;;;3.80;61.62;100788.13;10468238;28;20044;-67
2022/01/27 10:23:51;;;;;;;25.02;14.70;;;;;;;3.93;61.60;100775.81;10469032;28;20091;-68
2022/01/27 10:34:03;;;;;;;26.45;14.50;;;;;;;3.82;61.91;100786.38;10476520;28;20139;-68
2022/01/27 10:39:10;;;;;;;27.00;14.15;;;;;;;4.01;61.70;100777.38;10468291;28;20056;-67
2022/01/27 10:44:16;;;;;;;25.33;14.10;;;;;;;4.16;61.41;100771.91;10468064;28;20044;-67
2022/01/27 10:49:28;;;;;;;24.27;13.75;;;;;;;4.24;61.19;100766.56;10467227;28;20382;-67
2022/01/27 10:54:40;;;;;;;25.17;13.98;;;;;;;4.47;60.90;100764.34;10466783;28;20052;-68
2022/01/27 10:59:43;;;;;;;27.17;14.73;;;;;;;4.37;61.42;100771.44;10467052;28;20138;-68
2022/01/27 11:04:45;;;;;;;24.88;14.23;;;;;;;4.26;61.77;100780.34;10467629;28;20148;-67
2022/01/27 11:09:46;;;;;;;28.45;14.18;;;;;;;4.24;61.81;100756.22;10468017;28;20052;-67
2022/01/27 11:14:49;;;;;;;27.25;14.15;;;;;;;4.11;62.44;100759.97;10476135;28;20146;-67
2022/01/27 11:30:41;;;;;;;26.73;14.85;;;;;;;3.94;64.26;100730.97;10482010;28;20688;-65
2022/01/27 11:35:44;;;;;;;32.22;16.27;;;;;;;4.03;64.00;100723.84;10469598;28;20068;-66
2022/01/27 11:40:46;;;;;;;32.08;16.38;;;;;;;3.97;64.62;100726.56;10472095;28;20500;-66
2022/01/27 11:45:52;;;;;;;31.25;16.38;;;;;;;3.92;65.03;100724.97;10471870;28;20515;-66
2022/01/27 11:51:09;;;;;;;30.38;16.67;;;;;;;3.85;65.48;100713.88;10471137;28;20496;-65
2022/01/27 11:56:31;;;;;;;29.88;16.10;;;;;;;3.89;65.13;100707.75;10472689;28;20048;-65
2022/01/27 12:01:37;;;;;;;36.25;17.30;;;;;;;3.85;65.34;100714.75;10470779;28;20078;-66
2022/01/27 12:06:48;;;;;;;31.25;16.25;;;;;;;3.81;65.45;100712.19;10474407;28;20044;-65
2022/01/27 12:12:01;;;;;;;32.40;17.00;;;;;;;3.88;65.68;100711.25;10497213;28;20055;-66
2022/01/27 12:17:09;;;;;;;30.40;16.35;;;;;;;4.28;64.86;100703.47;10470376;28;20145;-66
2022/01/27 12:22:11;;;;;;;27.00;15.65;;;;;;;4.31;64.61;100700.84;10468936;28;20075;-66
2022/01/27 12:27:19;;;;;;;33.00;16.10;;;;;;;4.35;64.85;100686.94;10479148;28;20560;-66
2022/01/27 12:32:41;;;;;;;27.73;14.73;;;;;;;4.43;64.47;100678.09;10477829;28;20041;-66
2022/01/27 12:37:48;;;;;;;30.98;14.68;;;;;;;4.38;64.60;100674.75;10470094;28;20059;-66
2022/01/27 12:43:00;;;;;;;25.05;13.98;;;;;;;4.31;64.77;100664.59;10469704;28;20058;-65
2022/01/27 12:48:13;;;;;;;27.83;13.60;;;;;;;4.45;64.46;100665.13;10475231;28;20106;-66
2022/01/27 12:53:16;;;;;;;27.60;14.10;;;;;;;4.32;64.72;100658.50;10469142;28;20149;-67
2022/01/27 12:58:18;;;;;;;23.45;13.35;;;;;;;4.31;64.71;100630.94;10469775;28;20066;-66
2022/01/27 13:03:24;;;;;;;28.70;13.82;;;;;;;4.32;64.65;100648.16;10469499;28;20135;-65
2022/01/27 13:08:31;;;;;;;25.80;13.02;;;;;;;4.27;64.40;100648.25;10469787;28;20080;-66
2022/01/27 13:13:36;;;;;;;22.05;12.70;;;;;;;4.19;64.51;100647.56;10468703;28;20101;-65
2022/01/27 13:18:49;;;;;;;20.80;12.10;;;;;;;4.01;65.03;100649.72;10468918;28;20048;-66
2022/01/27 13:24:20;;;;;;;22.13;11.95;;;;;;;3.99;64.95;100629.03;10468748;28;20761;-66
2022/01/27 13:29:28;;;;;;;21.17;11.70;;;;;;;4.04;65.06;100629.81;10447272;28;20187;-66
2022/01/27 13:34:33;;;;;;;20.75;10.90;;;;;;;4.13;64.98;100624.41;10473108;28;20099;-66
2022/01/27 13:45:01;;;;;;;22.58;11.18;;;;;;;3.97;65.95;100620.47;10467896;28;20149;-66
2022/01/27 13:50:08;;;;;;;20.52;11.27;;;;;;;3.88;65.91;100615.50;10467789;28;20067;-66
2022/01/27 13:55:14;;;;;;;21.65;11.80;;;;;;;3.94;65.93;100619.69;10467243;28;20095;-66
2022/01/27 14:00:40;;;;;;;22.10;11.98;;;;;;;3.89;66.51;100617.19;10467946;28;20889;-65
2022/01/27 14:06:03;;;;;;;21.98;10.65;;;;;;;3.86;66.61;100620.69;10470492;28;20403;-66
2022/01/27 14:11:06;;;;;;;18.90;10.48;;;;;;;3.82;66.78;100613.03;10464739;28;20103;-65
2022/01/27 14:16:08;;;;;;;19.08;11.02;;;;;;;3.86;66.49;100605.16;10480808;28;20076;-66
2022/01/27 14:21:10;;;;;;;19.23;10.77;;;;;;;3.68;67.12;100607.28;10464383;28;20056;-66
2022/01/27 14:26:25;;;;;;;19.83;10.90;;;;;;;4.01;66.36;100606.56;10463105;28;20098;-66
2022/01/27 14:31:27;;;;;;;16.42;9.70;;;;;;;4.11;66.02;100600.31;10463835;28;20132;-66
2022/01/27 14:36:29;;;;;;;17.83;10.07;;;;;;;3.83;66.60;100601.78;10482933;28;20094;-65
2022/01/27 14:41:31;;;;;;;16.90;9.38;;;;;;;3.64;67.40;100605.66;10465406;28;20059;-66
2022/01/27 14:46:42;;;;;;;18.73;10.20;;;;;;;3.80;66.97;100596.69;10463734;28;20048;-66
2022/01/27 14:51:45;;;;;;;18.25;9.38;;;;;;;3.76;67.44;100601.03;10465245;28;20127;-65
2022/01/27 14:56:49;;;;;;;16.70;9.57;;;;;;;3.65;67.82;100600.44;10464842;28;20050;-65
2022/01/27 15:01:54;;;;;;;16.02;9.27;;;;;;;3.71;67.79;100612.38;10478723;28;20995;-63
2022/01/27 15:06:56;;;;;;;16.63;9.13;;;;;;;3.71;68.05;100604.63;10464792;28;20055;-67
2022/01/27 15:11:58;;;;;;;15.55;9.43;;;;;;;3.70;68.23;100610.69;10462101;28;20469;-67
2022/01/27 15:22:39;;;;;;;15.57;8.98;;;;;;;3.64;68.75;100616.00;10470249;28;20113;-67
2022/01/27 15:27:41;;;;;;;16.98;9.05;;;;;;;3.67;68.65;100614.19;10463563;28;20058;-67
2022/01/27 15:32:43;;;;;;;15.38;8.02;;;;;;;3.54;69.31;100604.97;10465763;28;20039;-67
2022/01/27 15:37:46;;;;;;;16.48;9.35;;;;;;;3.55;69.29;100616.16;10462869;28;20607;-67
2022/01/27 15:42:48;;;;;;;14.10;8.00;;;;;;;3.58;69.24;100613.50;10462706;28;20133;-67
2022/01/27 15:47:50;;;;;;;15.85;8.32;;;;;;;3.48;69.57;100615.44;10462907;28;20049;-67
2022/01/27 15:52:53;;;;;;;15.88;8.27;;;;;;;3.50;69.50;100607.63;10461853;28;20060;-67
2022/01/27 15:57:56;;;;;;;14.65;7.93;;;;;;;3.46;69.68;100601.69;10466789;28;20140;-67
2022/01/27 16:02:58;;;;;;;14.90;8.20;;;;;;;3.58;69.36;100605.75;10470714;28;20074;-67
2022/01/27 16:08:00;;;;;;;12.77;7.55;;;;;;;3.51;69.53;100611.94;10462710;28;20060;-67
2022/01/27 16:13:03;;;;;;;13.10;7.50;;;;;;;3.46;69.75;100606.84;10462016;28;20051;-67
2022/01/27 16:18:04;;;;;;;13.60;7.90;;;;;;;3.49;69.73;100598.19;10468313;28;20051;-68
2022/01/27 16:23:06;;;;;;;14.65;7.47;;;;;;;3.61;69.22;100610.88;10463682;28;20052;-67
2022/01/27 16:28:08;;;;;;;14.48;8.13;;;;;;;3.62;69.15;100604.84;10464894;28;20092;-67
2022/01/27 16:33:15;;;;;;;12.63;7.53;;;;;;;3.55;69.45;100586.00;10468630;28;20647;-67
2022/01/27 16:38:17;;;;;;;13.10;7.20;;;;;;;3.57;69.42;100604.06;10462944;28;20075;-67
2022/01/27 16:43:19;;;;;;;11.63;7.00;;;;;;;3.63;69.28;100606.53;10468972;28;20052;-68
2022/01/27 16:48:21;;;;;;;13.15;8.15;;;;;;;3.55;69.68;100601.53;10470020;28;20131;-67
2022/01/27 16:53:24;;;;;;;14.00;7.22;;;;;;;3.52;69.74;100601.56;10463245;28;20439;-67
2022/01/27 16:58:27;;;;;;;11.35;6.75;;;;;;;3.50;69.93;100598.16;10467755;28;20052;-67
2022/01/27 17:03:29;;;;;;;11.55;6.90;;;;;;;3.64;69.44;100603.06;10459361;28;20054;-67
2022/01/27 17:08:30;;;;;;;12.57;8.15;;;;;;;3.50;69.81;100612.81;10464315;28;20493;-67
2022/01/27 17:13:36;;;;;;;10.52;6.32;;;;;;;3.52;70.13;100605.88;10470653;28;20409;-68
2022/01/27 17:18:40;;;;;;;9.30;5.80;;;;;;;3.51;69.97;100605.06;10466470;28;20071;-68
2022/01/27 17:23:43;;;;;;;10.00;5.80;;;;;;;3.47;70.42;100612.88;10467532;28;20519;-67
2022/01/27 17:28:46;;;;;;;7.97;5.07;;;;;;;3.45;70.42;100614.66;10468182;28;20048;-68
2022/01/27 17:33:48;;;;;;;8.52;5.13;;;;;;;3.65;69.66;100623.72;10470027;28;20825;-67
2022/01/27 17:38:50;;;;;;;9.05;5.22;;;;;;;3.72;69.80;100621.88;10467831;28;20054;-67
2022/01/27 17:43:59;;;;;;;9.82;5.93;;;;;;;3.61;70.26;100621.22;10476929;28;20105;-67
2022/01/27 17:49:02;;;;;;;8.52;5.43;;;;;;;3.72;69.94;100627.88;10482350;28;20044;-68
2022/01/27 17:54:04;;;;;;;9.40;5.28;;;;;;;3.71;69.96;100630.50;10468223;28;20451;-67
2022/01/27 17:59:06;;;;;;;7.80;4.93;;;;;;;3.86;69.63;100638.81;10465547;28;20128;-67
2022/01/27 18:04:08;;;;;;;6.40;4.47;;;;;;;3.85;69.51;100620.72;10467795;28;20052;-67
2022/01/27 18:09:12;;;;;;;6.70;4.63;;;;;;;3.77;69.94;100620.00;10466608;28;20130;-67
2022/01/27 18:14:14;;;;;;;9.43;5.60;;;;;;;3.76;69.93;100631.25;10474128;28;20092;-67
2022/01/27 18:19:17;;;;;;;8.68;4.85;;;;;;;3.69;70.29;100621.91;10476515;28;20141;-67
2022/01/27 18:24:19;;;;;;;10.40;6.43;;;;;;;3.86;69.75;100623.28;10464417;28;20056;-67
2022/01/27 18:29:21;;;;;;;9.27;5.72;;;;;;;3.86;69.88;100631.03;10465564;28;20141;-67
2022/01/27 18:34:23;;;;;;;8.23;5.15;;;;;;;3.90;69.57;100625.81;10467123;28;20494;-67
2022/01/27 18:39:25;;;;;;;7.22;5.30;;;;;;;3.96;69.63;100629.13;10461736;28;20052;-67
2022/01/27 18:44:26;;;;;;;8.05;5.07;;;;;;;3.88;70.05;100646.56;10465640;28;20067;-67
2022/01/27 18:49:28;;;;;;;8.15;5.43;;;;;;;4.07;69.60;100637.50;10467388;28;20059;-67
2022/01/27 18:54:30;;;;;;;9.38;5.45;;;;;;;4.09;69.58;100647.84;10469647;28;20341;-67
2022/01/27 18:59:34;;;;;;;10.52;6.00;;;;;;;4.11;69.66;100665.00;10468122;28;20132;-67
2022/01/27 19:04:35;;;;;;;7.90;5.30;;;;;;;4.17;69.48;100664.06;10466409;28;20614;-67
2022/01/27 19:09:37;;;;;;;8.15;5.40;;;;;;;4.13;69.88;100673.59;10465034;28;20055;-63
2022/01/27 19:14:40;;;;;;;12.45;7.35;;;;;;;4.22;69.73;100675.13;10459065;28;20135;-67
2022/01/27 19:19:42;;;;;;;10.85;6.28;;;;;;;4.38;69.37;100704.97;10467774;28;20052;-67
2022/01/27 19:24:45;;;;;;;8.98;6.10;;;;;;;4.52;69.23;100702.94;10465545;28;20488;-67
2022/01/27 19:29:52;;;;;;;11.02;8.00;;;;;;;4.59;69.26;100705.38;10464631;28;20048;-67
2022/01/27 19:34:54;;;;;;;12.45;8.55;;;;;;;4.61;69.31;100693.22;10470199;28;20045;-67
2022/01/27 19:39:55;;;;;;;9.55;6.50;;;;;;;4.62;69.41;100715.63;10472566;28;20136;-68
2022/01/27 19:44:57;;;;;;;9.68;7.70;;;;;;;4.72;69.25;100712.84;10473050;28;20164;-67
2022/01/27 19:49:59;;;;;;;13.15;8.43;;;;;;;4.78;69.45;100710.13;10479602;28;20449;-67
2022/01/27 19:55:02;;;;;;;8.82;6.80;;;;;;;4.63;69.69;100725.13;10472998;28;20059;-67
2022/01/27 20:00:07;;;;;;;11.20;8.15;;;;;;;4.77;69.48;100737.75;10478956;28;20062;-67
2022/01/27 20:05:10;;;;;;;11.60;8.98;;;;;;;4.76;69.75;100738.63;10472328;28;20099;-67
2022/01/27 20:10:12;;;;;;;17.33;11.93;;;;;;;4.80;69.40;100749.81;10472545;28;20044;-67
2022/01/27 20:15:13;;;;;;;12.27;9.27;;;;;;;4.79;69.60;100748.94;10472097;28;20072;-67
2022/01/27 20:20:15;;;;;;;13.55;8.65;;;;;;;4.57;69.66;100738.22;10472122;28;20055;-66
2022/01/27 20:25:17;;;;;;;13.75;9.93;;;;;;;4.42;69.93;100733.38;10471741;28;20155;-67
2022/01/27 20:30:19;;;;;;;11.88;9.40;;;;;;;4.16;70.78;100743.44;10472553;28;20812;-67
2022/01/27 20:35:21;;;;;;;12.40;9.02;;;;;;;4.12;70.77;100767.69;10470640;28;20055;-67
2022/01/27 20:40:24;;;;;;;12.55;9.32;;;;;;;3.93;71.41;100773.22;10469814;28;20055;-68
2022/01/27 20:45:27;;;;;;;11.10;8.05;;;;;;;3.96;71.18;100774.06;10469026;28;20109;-67
2022/01/27 20:50:29;;;;;;;11.50;8.70;;;;;;;4.07;70.96;100761.72;10470867;28;20064;-67
2022/01/27 20:55:31;;;;;;;12.32;8.52;;;;;;;4.07;71.12;100779.84;10471427;28;20057;-68
2022/01/27 21:00:34;;;;;;;12.32;9.07;;;;;;;4.23;70.95;100783.84;10470901;28;20041;-67
2022/01/27 21:05:37;;;;;;;12.85;9.27;;;;;;;4.24;70.62;100793.31;10468950;28;20102;-67
2022/01/27 21:10:40;;;;;;;14.35;9.52;;;;;;;4.29;70.83;100812.19;10475371;28;20052;-68
2022/01/27 21:15:43;;;;;;;11.35;8.10;;;;;;;4.57;70.18;100817.66;10471604;28;20056;-68
2022/01/27 21:20:45;;;;;;;14.18;8.15;;;;;;;4.86;69.43;100819.63;10469182;28;20412;-68
2022/01/27 21:25:47;;;;;;;11.32;7.30;;;;;;;4.97;69.19;100828.00;10470925;28;20961;-69
2022/01/27 21:30:48;;;;;;;12.98;6.07;;;;;;;4.99;68.94;100834.00;10485138;28;20044;-68
2022/01/27 21:35:50;;;;;;;10.23;5.80;;;;;;;5.09;68.34;100838.94;10468080;28;20055;-68
2022/01/27 21:40:52;;;;;;;9.98;5.47;;;;;;;5.03;68.07;100844.28;10471021;28;20208;-68
2022/01/27 21:45:54;;;;;;;10.40;4.90;;;;;;;4.95;67.96;100843.59;10470073;28;20702;-68
2022/01/27 21:50:56;;;;;;;8.82;5.30;;;;;;;5.05;67.76;100859.78;10463432;28;20796;-68
2022/01/27 21:55:58;;;;;;;11.23;5.20;;;;;;;5.02;67.56;100868.50;10466871;28;20472;-67
2022/01/27 22:01:00;;;;;;;10.13;4.70;;;;;;;4.91;67.54;100878.25;10466385;28;20842;-68
2022/01/27 22:06:01;;;;;;;8.90;4.50;;;;;;;4.91;67.32;100882.56;10468140;28;20050;-68
2022/01/27 22:11:04;;;;;;;14.68;5.30;;;;;;;5.01;67.26;100889.25;10469494;28;20052;-67
2022/01/27 22:16:08;;;;;;;15.13;4.65;;;;;;;5.13;67.15;100897.63;10469035;28;20060;-67
2022/01/27 22:21:10;;;;;;;12.95;4.65;;;;;;;5.20;66.59;100895.75;10467610;28;20048;-67
2022/01/27 22:26:12;;;;;;;10.95;4.47;;;;;;;5.03;66.35;100905.63;10467997;28;20076;-67
2022/01/27 22:31:14;;;;;;;12.30;4.25;;;;;;;4.93;66.40;100906.72;10467699;28;20056;-67
2022/01/27 22:36:17;;;;;;;8.85;4.05;;;;;;;5.04;66.10;100916.00;10467710;28;20148;-67
2022/01/27 22:41:19;;;;;;;11.02;3.70;;;;;;;5.06;65.94;100922.00;10469172;28;20076;-67
2022/01/27 22:46:22;;;;;;;10.95;4.07;;;;;;;5.16;65.45;100915.72;10466401;28;20048;-67
2022/01/27 22:51:24;;;;;;;12.55;5.93;;;;;;;5.29;65.23;100909.34;10466905;28;20068;-67
2022/01/27 22:56:26;;;;;;;11.52;4.68;;;;;;;5.32;65.06;100906.72;10466274;28;20135;-67
2022/01/27 23:01:28;;;;;;;9.90;3.47;;;;;;;5.11;65.12;100906.31;10466487;28;20050;-67
2022/01/27 23:06:30;;;;;;;11.65;3.33;;;;;;;5.00;64.72;100900.53;10465144;28;20072;-67
2022/01/27 23:11:35;;;;;;;9.48;3.45;;;;;;;4.98;64.50;100916.13;10466061;28;20106;-67
2022/01/27 23:16:56;;;;;;;8.50;3.30;;;;;;;4.89;64.47;100920.63;10466880;28;20518;-67
2022/01/27 23:27:09;;;;;;;10.18;3.70;;;;;;;4.96;64.48;100937.78;10464873;28;20055;-67
2022/01/27 23:32:11;;;;;;;13.68;3.53;;;;;;;5.06;63.90;100942.75;10476624;28;20064;-67
2022/01/27 23:58:07;;;;;;;10.60;2.85;;;;;;;5.12;62.55;100946.94;10466587;28;20147;-67
